Time;durP1;ratioP1;P1;durP2;ratioP2;P2;SDS_P1;SDS_P2;PMS_P1;PMS_P2;Temp;Humidity;BMP_temperature;BMP_pressure;BME280_temperature;BME280_humidity;BME280_pressure;Samples;Min_cycle;Max_cycle;Signal;HPM_P1;HPM_P2
2021/08/09 00:00:50;;;;;;;1.92;1.75;;;20.10;99.90;;;;;;5050364;28;20230;-77
2021/08/09 00:03:18;;;;;;;1.90;1.80;;;20.10;99.90;;;;;;5049930;28;20225;-78
2021/08/09 00:05:46;;;;;;;2.03;1.85;;;20.00;99.90;;;;;;5052495;28;20222;-74
2021/08/09 00:08:13;;;;;;;1.65;1.55;;;20.00;99.90;;;;;;5056668;28;20199;-77
2021/08/09 00:10:40;;;;;;;1.65;1.55;;;20.10;99.90;;;;;;5047659;28;20203;-77
2021/08/09 00:13:07;;;;;;;2.50;1.70;;;20.00;99.90;;;;;;5026137;28;20219;-78
2021/08/09 00:15:36;;;;;;;1.63;1.52;;;20.10;99.90;;;;;;5023656;28;20208;-78
2021/08/09 00:18:03;;;;;;;2.00;1.80;;;20.10;99.90;;;;;;5024617;28;20716;-78
2021/08/09 00:20:30;;;;;;;1.95;1.65;;;20.10;99.90;;;;;;5017885;28;20286;-78
2021/08/09 00:22:57;;;;;;;1.70;1.60;;;20.00;99.90;;;;;;5053192;28;20264;-74
2021/08/09 00:25:24;;;;;;;2.10;1.90;;;20.00;99.90;;;;;;5056357;28;20697;-77
2021/08/09 00:27:51;;;;;;;1.80;1.70;;;20.00;99.90;;;;;;5049545;28;20226;-77
2021/08/09 00:30:18;;;;;;;1.85;1.75;;;19.90;99.90;;;;;;5048102;28;20199;-78
2021/08/09 00:32:47;;;;;;;1.98;1.75;;;19.90;99.90;;;;;;5049913;28;20639;-78
2021/08/09 00:35:14;;;;;;;1.60;1.50;;;19.80;99.90;;;;;;5052023;28;20195;-77
2021/08/09 00:37:41;;;;;;;1.77;1.67;;;19.80;99.90;;;;;;5046992;28;20651;-77
2021/08/09 00:40:09;;;;;;;1.63;1.52;;;19.70;99.90;;;;;;5050632;28;20199;-78
2021/08/09 00:42:36;;;;;;;1.70;1.60;;;19.70;99.90;;;;;;5049888;28;20215;-78
2021/08/09 00:45:04;;;;;;;1.92;1.77;;;19.70;99.90;;;;;;5049005;28;20215;-78
2021/08/09 00:47:31;;;;;;;2.05;1.75;;;19.70;99.90;;;;;;5048195;28;20771;-78
2021/08/09 00:50:00;;;;;;;1.98;1.67;;;19.70;99.90;;;;;;5050053;28;20199;-77
2021/08/09 00:52:27;;;;;;;1.55;1.45;;;19.70;99.90;;;;;;5044171;28;20219;-76
2021/08/09 00:54:54;;;;;;;1.75;1.65;;;19.70;99.90;;;;;;5051008;28;20222;-77
2021/08/09 00:57:21;;;;;;;2.05;1.90;;;19.60;99.90;;;;;;5050459;28;20639;-77
2021/08/09 00:59:49;;;;;;;2.80;1.70;;;19.60;99.90;;;;;;5043620;28;20199;-77
2021/08/09 01:02:16;;;;;;;1.70;1.60;;;19.60;99.90;;;;;;5047975;28;20251;-75
2021/08/09 01:04:43;;;;;;;1.52;1.42;;;19.50;99.90;;;;;;5051683;28;20219;-78
2021/08/09 01:07:11;;;;;;;1.80;1.70;;;19.50;99.90;;;;;;5046438;28;20222;-77
2021/08/09 01:09:44;;;;;;;1.98;1.75;;;19.50;99.90;;;;;;5050481;28;20286;-78
2021/08/09 01:12:16;;;;;;;2.00;1.80;;;19.50;99.90;;;;;;5049923;28;20214;-77
2021/08/09 01:14:53;;;;;;;1.95;1.50;;;19.50;99.90;;;;;;5049478;28;20622;-78
2021/08/09 01:17:23;;;;;;;2.15;1.67;;;19.50;99.90;;;;;;5049605;28;20716;-78
2021/08/09 01:20:09;;;;;;;1.92;1.80;;;19.50;99.90;;;;;;5048315;28;20234;-77
2021/08/09 01:22:46;;;;;;;1.77;1.65;;;19.50;99.90;;;;;;5049349;28;20284;-78
2021/08/09 01:25:20;;;;;;;1.80;1.70;;;19.40;99.90;;;;;;5052245;28;20256;-78
2021/08/09 01:27:52;;;;;;;1.80;1.70;;;19.30;99.90;;;;;;5053517;28;20218;-78
2021/08/09 01:30:21;;;;;;;2.20;2.00;;;19.30;99.90;;;;;;5051427;28;20195;-78
2021/08/09 01:32:49;;;;;;;2.58;1.73;;;19.20;99.90;;;;;;5051516;28;20700;-76
2021/08/09 01:35:18;;;;;;;1.88;1.60;;;19.10;99.90;;;;;;5054138;28;20281;-78
2021/08/09 01:37:47;;;;;;;2.15;1.77;;;19.20;99.90;;;;;;5049487;28;20268;-76
2021/08/09 01:40:15;;;;;;;1.70;1.60;;;19.10;99.90;;;;;;5054792;28;20229;-76
2021/08/09 01:42:45;;;;;;;1.77;1.58;;;19.10;99.90;;;;;;5054982;28;20623;-77
2021/08/09 01:45:15;;;;;;;1.77;1.67;;;19.10;99.90;;;;;;5052874;28;20222;-78
2021/08/09 01:47:43;;;;;;;1.83;1.70;;;19.10;99.90;;;;;;5053568;28;20356;-78
2021/08/09 01:50:13;;;;;;;1.75;1.38;;;19.10;99.90;;;;;;5057319;28;20203;-77
2021/08/09 01:52:41;;;;;;;2.00;1.70;;;19.10;99.90;;;;;;5037218;28;20297;-77
2021/08/09 01:55:12;;;;;;;1.80;1.70;;;19.10;99.90;;;;;;5039462;28;20200;-77
2021/08/09 01:57:39;;;;;;;1.73;1.63;;;19.00;99.90;;;;;;5052107;28;20770;-77
2021/08/09 02:00:08;;;;;;;2.00;1.90;;;19.00;99.90;;;;;;5054046;28;20218;-78
2021/08/09 02:02:36;;;;;;;1.80;1.70;;;19.00;99.90;;;;;;5053976;28;20276;-78
2021/08/09 02:05:09;;;;;;;1.70;1.60;;;19.00;99.90;;;;;;5052862;28;20219;-78
2021/08/09 02:07:39;;;;;;;1.45;1.35;;;19.00;99.90;;;;;;5052657;28;20218;-78
2021/08/09 02:10:08;;;;;;;2.10;2.00;;;19.00;99.90;;;;;;5048600;28;20195;-77
2021/08/09 02:12:38;;;;;;;2.75;2.03;;;19.00;99.90;;;;;;5053336;28;20222;-78
2021/08/09 02:15:06;;;;;;;1.42;1.33;;;19.00;99.90;;;;;;5053957;28;20199;-77
2021/08/09 02:17:40;;;;;;;1.98;1.50;;;18.90;99.90;;;;;;5053199;28;20215;-79
2021/08/09 02:20:13;;;;;;;1.77;1.65;;;19.00;99.90;;;;;;5054103;28;20286;-78
2021/08/09 02:22:45;;;;;;;1.40;1.30;;;18.90;99.90;;;;;;5052184;28;20288;-77
2021/08/09 02:25:15;;;;;;;1.83;1.73;;;18.90;99.90;;;;;;5051222;28;20685;-78
2021/08/09 02:27:44;;;;;;;1.60;1.50;;;18.90;99.90;;;;;;5052163;28;20275;-77
2021/08/09 02:30:13;;;;;;;1.50;1.40;;;18.90;99.90;;;;;;5049716;28;20202;-77
2021/08/09 02:32:42;;;;;;;1.60;1.50;;;18.90;99.90;;;;;;5052326;28;20304;-77
2021/08/09 02:35:15;;;;;;;1.75;1.63;;;18.90;99.90;;;;;;5053645;28;20532;-77
2021/08/09 02:37:43;;;;;;;1.55;1.45;;;18.80;99.90;;;;;;5051485;28;20572;-77
2021/08/09 02:40:12;;;;;;;1.77;1.67;;;18.80;99.90;;;;;;5054326;28;20191;-78
2021/08/09 02:42:40;;;;;;;1.88;1.75;;;18.70;99.90;;;;;;5051352;28;20666;-76
2021/08/09 02:45:09;;;;;;;1.70;1.60;;;18.70;99.90;;;;;;5053438;28;20295;-77
2021/08/09 02:47:38;;;;;;;1.70;1.60;;;18.70;99.90;;;;;;5052931;28;20223;-78
2021/08/09 02:50:10;;;;;;;1.75;1.40;;;18.70;99.90;;;;;;5051336;28;20684;-77
2021/08/09 02:52:39;;;;;;;1.70;1.50;;;18.60;99.90;;;;;;5052375;28;20264;-78
2021/08/09 02:55:09;;;;;;;1.80;1.70;;;18.60;99.90;;;;;;5047170;28;20187;-78
2021/08/09 02:57:37;;;;;;;1.60;1.45;;;18.60;99.90;;;;;;5051837;28;20276;-77
2021/08/09 03:00:06;;;;;;;1.55;1.45;;;18.60;99.90;;;;;;5054043;28;20194;-77
2021/08/09 03:02:37;;;;;;;1.85;1.50;;;18.60;99.90;;;;;;5052397;28;20638;-78
2021/08/09 03:05:07;;;;;;;1.67;1.58;;;18.50;99.90;;;;;;5059781;28;20734;-77
2021/08/09 03:07:37;;;;;;;2.45;1.77;;;18.50;99.90;;;;;;5051996;28;20221;-78
2021/08/09 03:10:06;;;;;;;1.63;1.52;;;18.50;99.90;;;;;;5051597;28;20278;-78
2021/08/09 03:12:34;;;;;;;1.58;1.48;;;18.50;99.90;;;;;;5052489;28;20215;-77
2021/08/09 03:15:01;;;;;;;1.90;1.70;;;18.50;99.90;;;;;;5052804;28;20572;-77
2021/08/09 03:17:28;;;;;;;1.83;1.70;;;18.50;99.90;;;;;;5053692;28;20222;-79
2021/08/09 03:19:55;;;;;;;1.70;1.60;;;18.50;99.90;;;;;;5051746;28;20195;-77
2021/08/09 03:22:24;;;;;;;1.85;1.75;;;18.40;99.90;;;;;;5049408;28;20282;-78
2021/08/09 03:24:51;;;;;;;1.60;1.50;;;18.40;99.90;;;;;;5050435;28;20227;-78
2021/08/09 03:27:18;;;;;;;1.42;1.33;;;18.40;99.90;;;;;;5056381;28;20717;-77
2021/08/09 03:29:45;;;;;;;1.77;1.65;;;18.40;99.90;;;;;;5055050;28;20252;-77
2021/08/09 03:32:12;;;;;;;1.70;1.50;;;18.30;99.90;;;;;;5054154;28;20276;-77
2021/08/09 03:34:39;;;;;;;2.10;1.40;;;18.30;99.90;;;;;;5052517;28;20218;-78
2021/08/09 03:37:06;;;;;;;1.48;1.38;;;18.30;99.90;;;;;;5054880;28;20667;-76
2021/08/09 03:39:35;;;;;;;1.88;1.60;;;18.30;99.90;;;;;;5052539;28;20261;-79
2021/08/09 03:42:02;;;;;;;1.75;1.65;;;18.30;99.90;;;;;;5051184;28;20226;-77
2021/08/09 03:44:29;;;;;;;1.50;1.40;;;18.20;99.90;;;;;;5056467;28;20230;-77
2021/08/09 03:46:56;;;;;;;1.30;1.20;;;18.20;99.90;;;;;;5055045;28;20230;-78
2021/08/09 03:49:23;;;;;;;1.70;1.52;;;18.20;99.90;;;;;;5055551;28;20260;-78
2021/08/09 03:51:50;;;;;;;1.33;1.23;;;18.20;99.90;;;;;;5050651;28;20226;-78
2021/08/09 03:54:17;;;;;;;1.63;1.52;;;18.20;99.90;;;;;;5049595;28;20218;-77
2021/08/09 03:56:45;;;;;;;1.67;1.58;;;18.30;99.90;;;;;;5047966;28;20285;-78
2021/08/09 03:59:13;;;;;;;1.52;1.42;;;18.30;99.90;;;;;;5053873;28;20684;-79
2021/08/09 04:01:40;;;;;;;2.17;1.42;;;18.30;99.90;;;;;;5051975;28;20776;-78
2021/08/09 04:04:08;;;;;;;1.30;1.17;;;18.30;99.90;;;;;;5053220;28;20219;-79
2021/08/09 04:06:35;;;;;;;1.70;1.60;;;18.30;99.90;;;;;;5049433;28;20754;-77
2021/08/09 04:09:05;;;;;;;1.15;1.15;;;18.30;99.90;;;;;;5047152;28;20613;-78
2021/08/09 04:11:32;;;;;;;1.88;1.60;;;18.30;99.90;;;;;;5051504;28;20570;-78
2021/08/09 04:14:02;;;;;;;1.88;1.58;;;18.30;99.90;;;;;;5053665;28;20215;-77
2021/08/09 04:16:29;;;;;;;2.53;1.58;;;18.30;99.90;;;;;;5048463;28;20305;-78
2021/08/09 04:18:56;;;;;;;1.73;1.10;;;18.20;99.90;;;;;;5050203;28;20276;-77
2021/08/09 04:21:23;;;;;;;1.65;1.55;;;18.20;99.90;;;;;;5046788;28;20576;-78
2021/08/09 04:23:50;;;;;;;1.85;1.48;;;18.20;99.90;;;;;;5026048;28;20231;-78
2021/08/09 04:26:18;;;;;;;1.40;1.30;;;18.20;99.90;;;;;;5026251;28;20236;-78
2021/08/09 04:28:46;;;;;;;1.40;1.30;;;18.20;99.90;;;;;;5055579;28;20199;-78
2021/08/09 04:31:14;;;;;;;1.67;1.27;;;18.20;99.90;;;;;;5046209;28;20624;-79
2021/08/09 04:33:43;;;;;;;1.55;1.45;;;18.20;99.90;;;;;;5030560;28;20219;-78
2021/08/09 04:36:10;;;;;;;1.27;1.20;;;18.20;99.90;;;;;;5028377;28;20200;-77
2021/08/09 04:38:37;;;;;;;1.48;1.38;;;18.20;99.90;;;;;;5031076;28;20281;-79
2021/08/09 04:41:06;;;;;;;1.55;1.30;;;18.20;99.90;;;;;;5029214;28;20196;-77
2021/08/09 04:43:34;;;;;;;1.20;1.20;;;18.20;99.90;;;;;;5047032;28;20237;-78
2021/08/09 04:46:01;;;;;;;1.40;1.30;;;18.20;99.90;;;;;;5048587;28;20226;-78
2021/08/09 04:48:30;;;;;;;1.55;1.45;;;18.30;99.90;;;;;;5058919;28;20214;-78
2021/08/09 04:50:58;;;;;;;1.55;1.45;;;18.40;99.90;;;;;;5050294;28;20195;-78
2021/08/09 04:53:25;;;;;;;1.50;1.40;;;18.50;99.90;;;;;;5051451;28;20292;-79
2021/08/09 04:55:52;;;;;;;1.40;1.30;;;18.60;99.90;;;;;;5052337;28;20268;-78
2021/08/09 04:58:19;;;;;;;1.10;1.10;;;18.70;99.90;;;;;;5052793;28;20219;-78
2021/08/09 05:00:46;;;;;;;1.50;1.40;;;18.90;99.90;;;;;;5054173;28;20191;-77
2021/08/09 05:03:13;;;;;;;2.63;1.45;;;19.00;99.90;;;;;;5051146;28;20226;-78
2021/08/09 05:05:45;;;;;;;1.20;1.20;;;19.10;99.90;;;;;;5053042;28;20215;-77
2021/08/09 05:08:12;;;;;;;1.30;1.20;;;19.30;99.90;;;;;;5055151;28;20861;-78
2021/08/09 05:10:40;;;;;;;1.55;1.40;;;19.40;99.90;;;;;;5057566;28;20256;-78
2021/08/09 05:13:07;;;;;;;1.40;1.30;;;19.60;99.90;;;;;;5034307;28;20223;-77
2021/08/09 05:15:35;;;;;;;1.65;1.20;;;19.70;99.90;;;;;;5026006;28;20253;-78
2021/08/09 05:18:03;;;;;;;1.35;1.10;;;19.90;99.90;;;;;;5024863;28;20223;-79
2021/08/09 05:20:31;;;;;;;1.38;1.27;;;20.00;99.90;;;;;;5022422;28;20216;-78
2021/08/09 05:22:59;;;;;;;2.90;1.40;;;20.10;99.90;;;;;;5026376;28;20277;-78
2021/08/09 05:25:26;;;;;;;1.25;1.17;;;20.10;99.90;;;;;;5023724;28;20544;-78
2021/08/09 05:27:53;;;;;;;1.25;1.15;;;20.10;99.90;;;;;;5040576;28;20223;-78
2021/08/09 05:30:21;;;;;;;1.73;1.30;;;20.10;99.90;;;;;;5054078;28;20195;-78
2021/08/09 05:32:48;;;;;;;1.20;1.10;;;20.10;99.90;;;;;;5053580;28;20221;-76
2021/08/09 05:35:15;;;;;;;1.13;1.00;;;20.30;99.90;;;;;;5056234;28;20735;-78
2021/08/09 05:37:42;;;;;;;1.30;1.20;;;20.40;99.90;;;;;;5051022;28;20218;-77
2021/08/09 05:40:11;;;;;;;1.33;1.17;;;20.50;99.90;;;;;;5055794;28;20199;-77
2021/08/09 05:53:01;;;;;;;1.67;1.55;;;20.90;99.90;;;;;;5769332;22;20214;-76
2021/08/09 05:55:37;;;;;;;1.88;1.77;;;20.90;99.90;;;;;;5075096;28;20198;-76
2021/08/09 05:58:04;;;;;;;3.20;1.55;;;21.00;99.90;;;;;;5066655;28;20229;-77
2021/08/09 06:00:32;;;;;;;2.10;1.67;;;21.00;99.90;;;;;;5075450;28;20699;-77
2021/08/09 06:03:00;;;;;;;2.75;1.55;;;21.00;99.90;;;;;;5069970;28;20223;-76
2021/08/09 06:05:28;;;;;;;1.73;1.63;;;20.90;99.90;;;;;;5055007;28;20696;-77
2021/08/09 06:07:55;;;;;;;2.83;1.98;;;21.00;99.90;;;;;;5069946;28;20229;-75
2021/08/09 06:10:23;;;;;;;1.98;1.60;;;21.10;99.90;;;;;;5065221;28;20691;-78
2021/08/09 06:35:51;;;;;;;1.70;1.60;;;21.70;99.90;;;;;;5037187;22;20234;-76
2021/08/09 06:38:22;;;;;;;2.05;1.58;;;21.70;99.90;;;;;;5034278;28;20191;-77
2021/08/09 06:40:52;;;;;;;1.70;1.60;;;21.90;99.90;;;;;;5033556;28;20228;-77
2021/08/09 06:43:21;;;;;;;1.92;1.80;;;22.00;99.90;;;;;;5034133;28;20210;-77
2021/08/09 06:45:48;;;;;;;1.80;1.52;;;22.00;99.90;;;;;;5023808;28;20231;-76
2021/08/09 06:48:16;;;;;;;2.35;1.40;;;22.10;99.90;;;;;;5026300;28;20196;-78
2021/08/09 06:50:45;;;;;;;1.60;1.50;;;22.00;99.90;;;;;;5033355;28;20222;-77
2021/08/09 06:53:13;;;;;;;2.42;1.50;;;22.10;99.90;;;;;;5031321;28;20194;-76
2021/08/09 06:55:41;;;;;;;2.05;1.40;;;22.20;99.90;;;;;;5033239;28;20229;-76
2021/08/09 06:58:08;;;;;;;2.55;1.30;;;22.40;99.90;;;;;;5033447;28;20550;-76
2021/08/09 07:00:35;;;;;;;1.42;1.33;;;22.60;99.90;;;;;;5023169;28;20312;-76
2021/08/09 07:03:07;;;;;;;1.63;1.30;;;22.80;99.90;;;;;;5017945;28;20560;-78
2021/08/09 07:05:40;;;;;;;2.20;1.85;;;22.90;99.90;;;;;;5017059;28;20632;-77
2021/08/09 07:08:08;;;;;;;2.75;1.75;;;22.80;99.90;;;;;;5020470;28;20203;-77
2021/08/09 07:10:43;;;;;;;1.70;1.60;;;22.70;99.90;;;;;;5018047;28;20606;-77
2021/08/09 07:13:15;;;;;;;2.53;1.48;;;22.70;99.90;;;;;;5017253;28;20227;-75
2021/08/09 07:15:44;;;;;;;1.58;1.48;;;22.80;99.90;;;;;;5031179;28;20219;-76
2021/08/09 07:18:11;;;;;;;3.75;1.65;;;22.80;99.90;;;;;;5029663;28;20283;-74
2021/08/09 07:20:41;;;;;;;2.75;1.55;;;22.90;99.90;;;;;;5026176;28;20224;-78
2021/08/09 07:23:08;;;;;;;1.77;1.52;;;22.80;99.90;;;;;;5031980;28;20231;-78
2021/08/09 07:25:43;;;;;;;1.75;1.45;;;22.90;99.90;;;;;;5023449;28;20231;-76
2021/08/09 07:28:12;;;;;;;1.73;1.58;;;23.10;99.90;;;;;;5033507;28;20551;-76
2021/08/09 07:30:39;;;;;;;1.90;1.40;;;23.20;99.90;;;;;;5017407;28;20228;-76
2021/08/09 07:33:06;;;;;;;1.58;1.48;;;23.20;99.90;;;;;;5015343;28;20614;-76
2021/08/09 07:35:35;;;;;;;1.55;1.45;;;23.30;99.90;;;;;;5032152;28;20279;-76
2021/08/09 07:38:03;;;;;;;1.75;1.40;;;23.40;99.90;;;;;;5032054;28;20200;-76
2021/08/09 07:40:30;;;;;;;1.73;1.25;;;23.50;99.90;;;;;;5020256;28;20210;-76
2021/08/09 07:43:05;;;;;;;2.00;1.35;;;23.60;99.90;;;;;;5020140;28;20220;-76
2021/08/09 07:45:32;;;;;;;1.33;1.23;;;23.60;99.90;;;;;;5022441;28;20254;-76
2021/08/09 07:48:01;;;;;;;2.70;1.95;;;23.60;99.90;;;;;;5033441;28;20200;-76
2021/08/09 07:50:28;;;;;;;1.83;1.50;;;23.60;99.90;;;;;;5032088;28;20204;-75
2021/08/09 08:15:01;;;;;;;2.55;1.83;;;23.90;99.90;;;;;;6070661;22;20171;-75
2021/08/09 08:17:29;;;;;;;2.00;1.75;;;23.80;99.90;;;;;;5074631;28;20218;-75
2021/08/09 08:20:02;;;;;;;4.30;1.65;;;23.80;99.90;;;;;;5082485;28;20205;-75
2021/08/09 08:22:30;;;;;;;2.22;1.88;;;23.90;99.90;;;;;;5051415;28;20230;-77
2021/08/09 08:24:57;;;;;;;3.60;1.73;;;23.90;99.90;;;;;;5075407;28;20198;-75
2021/08/09 08:27:24;;;;;;;1.90;1.70;;;23.90;99.90;;;;;;5087226;28;20224;-77
2021/08/09 08:29:52;;;;;;;2.00;1.80;;;24.10;99.90;;;;;;5086733;28;20232;-77
2021/08/09 08:32:22;;;;;;;1.70;1.60;;;24.40;99.90;;;;;;5086842;28;20229;-77
2021/08/09 08:34:54;;;;;;;2.03;1.77;;;24.40;99.90;;;;;;5091186;28;20287;-76
2021/08/09 08:37:21;;;;;;;2.15;1.95;;;24.50;99.90;;;;;;5086665;28;20300;-79
2021/08/09 08:39:50;;;;;;;2.20;2.00;;;24.80;99.90;;;;;;5096078;28;20686;-76
2021/08/09 08:42:19;;;;;;;1.80;1.70;;;25.00;99.90;;;;;;5093272;28;20723;-78
2021/08/09 08:44:52;;;;;;;2.15;1.90;;;24.90;99.90;;;;;;5086754;28;20204;-76
2021/08/09 08:47:25;;;;;;;3.35;1.80;;;24.90;99.90;;;;;;5090234;28;20239;-76
2021/08/09 08:49:53;;;;;;;2.28;2.03;;;25.00;99.90;;;;;;5081167;28;20213;-76
2021/08/09 08:52:20;;;;;;;1.60;1.50;;;25.00;99.90;;;;;;5094726;28;20623;-76
2021/08/09 08:54:47;;;;;;;1.80;1.58;;;25.10;99.90;;;;;;5086044;28;20198;-77
2021/08/09 08:57:19;;;;;;;1.88;1.70;;;25.30;99.90;;;;;;5080140;28;20221;-75
2021/08/09 08:59:50;;;;;;;1.63;1.45;;;25.30;99.90;;;;;;5087854;28;20622;-75
2021/08/09 09:02:36;;;;;;;1.90;1.70;;;25.50;99.90;;;;;;5095050;28;20225;-75
2021/08/09 09:05:08;;;;;;;1.90;1.65;;;25.60;99.90;;;;;;5090317;28;20280;-76
2021/08/09 09:07:36;;;;;;;1.95;1.70;;;25.90;99.90;;;;;;5084778;28;20229;-76
2021/08/09 09:10:21;;;;;;;1.63;1.52;;;26.20;99.90;;;;;;5076105;28;20252;-77
2021/08/09 09:13:07;;;;;;;1.90;1.80;;;26.30;99.90;;;;;;5082129;28;20722;-76
2021/08/09 09:15:57;;;;;;;2.03;1.45;;;26.40;99.90;;;;;;5088722;28;20714;-77
2021/08/09 09:18:27;;;;;;;1.98;1.60;;;26.60;99.90;;;;;;5085675;28;20300;-78
2021/08/09 09:20:55;;;;;;;1.67;1.58;;;26.60;99.90;;;;;;5096230;28;20576;-78
2021/08/09 09:23:27;;;;;;;2.00;1.77;;;26.50;99.90;;;;;;5095013;28;20217;-76
2021/08/09 09:25:54;;;;;;;1.70;1.60;;;26.40;99.90;;;;;;5086380;28;20664;-77
2021/08/09 09:28:32;;;;;;;1.70;1.60;;;26.40;99.90;;;;;;5093842;28;20224;-76
2021/08/09 09:31:03;;;;;;;2.10;1.90;;;26.40;99.90;;;;;;5089834;28;20198;-77
2021/08/09 09:33:32;;;;;;;3.10;1.80;;;26.40;99.90;;;;;;5089661;28;20214;-78
2021/08/09 10:04:30;;;;;;;1.50;1.40;;;27.20;99.90;;;;;;5334350;22;20226;-77
2021/08/09 10:06:57;;;;;;;1.83;1.63;;;27.40;99.90;;;;;;5074912;28;20216;-77
2021/08/09 10:09:30;;;;;;;1.65;1.55;;;27.40;99.90;;;;;;5074763;28;20221;-76
2021/08/09 10:27:12;;;;;;;2.97;1.50;;;27.80;99.90;;;;;;5981107;22;20259;-75
2021/08/09 10:30:13;;;;;;;1.77;1.67;;;27.80;99.90;;;;;;5063863;28;20195;-75
2021/08/09 10:32:46;;;;;;;2.40;1.80;;;27.70;99.90;;;;;;5052478;28;20233;-74
2021/08/09 10:36:03;;;;;;;1.63;1.52;;;27.70;99.90;;;;;;5055929;28;20198;-76
2021/08/09 10:38:44;;;;;;;2.58;1.58;;;28.00;99.90;;;;;;5034727;28;20218;-75
2021/08/09 10:45:19;;;;;;;1.70;1.60;;;28.20;99.90;;;;;;5028017;28;20642;-76
2021/08/09 11:23:08;;;;;;;2.00;1.50;;;28.30;99.90;;;;;;5120395;22;20213;-77
2021/08/09 11:25:38;;;;;;;1.90;1.58;;;28.30;99.90;;;;;;5098558;28;20220;-77
2021/08/09 11:28:08;;;;;;;1.70;1.60;;;28.30;99.90;;;;;;5093059;28;20734;-78
2021/08/09 11:30:44;;;;;;;1.77;1.63;;;28.50;99.90;;;;;;5098011;28;20198;-76
2021/08/09 11:33:27;;;;;;;2.67;1.70;;;28.70;99.90;;;;;;5091645;28;20304;-78
2021/08/09 11:35:55;;;;;;;1.90;1.80;;;29.00;99.90;;;;;;5093423;28;20281;-76
2021/08/09 11:38:24;;;;;;;3.20;2.15;;;29.10;99.90;;;;;;5092580;28;20232;-76
2021/08/09 11:40:53;;;;;;;1.80;1.70;;;29.00;99.90;;;;;;5093625;28;20204;-77
2021/08/09 11:43:26;;;;;;;3.13;2.00;;;28.90;99.90;;;;;;5093053;28;20601;-78
2021/08/09 11:45:55;;;;;;;4.15;1.83;;;28.80;99.90;;;;;;5090529;28;20200;-78
2021/08/09 12:09:04;;;;;;;2.95;1.77;;;29.50;99.90;;;;;;5216893;22;20214;-79
2021/08/09 12:11:33;;;;;;;3.40;2.13;;;29.60;99.90;;;;;;5054202;28;20211;-77
2021/08/09 12:14:10;;;;;;;4.05;2.55;;;29.60;99.90;;;;;;5055038;28;20650;-78
2021/08/09 12:16:53;;;;;;;2.15;2.00;;;29.80;99.90;;;;;;5063944;28;20190;-78
2021/08/09 12:19:35;;;;;;;2.58;2.20;;;29.80;99.90;;;;;;5074053;28;20218;-79
2021/08/09 12:34:59;;;;;;;3.42;2.33;;;29.70;99.90;;;;;;5358871;22;20227;-76
2021/08/09 12:37:34;;;;;;;4.20;2.38;;;29.80;99.90;;;;;;5067896;28;20665;-77
2021/08/09 12:40:12;;;;;;;3.63;2.42;;;29.90;99.90;;;;;;5041718;28;20222;-77
2021/08/09 12:42:40;;;;;;;4.13;2.20;;;29.70;99.90;;;;;;5037813;28;20223;-78
2021/08/09 12:45:08;;;;;;;3.75;2.50;;;29.70;99.90;;;;;;5039314;28;20218;-76
2021/08/09 12:47:35;;;;;;;2.65;2.33;;;29.80;99.90;;;;;;5038003;28;20230;-77
2021/08/09 12:50:08;;;;;;;3.97;2.75;;;29.80;99.90;;;;;;5036216;28;20701;-76
2021/08/09 12:52:38;;;;;;;3.63;2.35;;;29.80;99.90;;;;;;5033527;28;20250;-76
2021/08/09 12:55:06;;;;;;;3.20;2.40;;;29.70;99.90;;;;;;5031877;28;20216;-76
2021/08/09 12:57:36;;;;;;;3.88;2.63;;;29.70;99.90;;;;;;5028423;28;20211;-77
2021/08/09 13:43:54;;;;;;;4.07;2.67;;;30.10;99.90;;;;;;5016401;28;20223;-76
2021/08/09 13:46:31;;;;;;;4.05;2.67;;;30.00;99.90;;;;;;5025157;28;20202;-76
2021/08/09 13:49:22;;;;;;;4.90;3.00;;;30.00;99.90;;;;;;5013977;28;20221;-79
2021/08/09 14:09:14;;;;;;;2.78;2.58;;;30.00;99.90;;;;;;4831165;29;20271;-77
2021/08/09 14:11:47;;;;;;;5.45;2.85;;;29.90;99.90;;;;;;4841777;29;20434;-77
2021/08/09 14:47:03;;;;;;;4.88;2.40;;;29.20;99.90;;;;;;4908158;29;20611;-77
2021/08/09 14:49:32;;;;;;;4.13;2.75;;;29.30;99.90;;;;;;4980286;28;20233;-78
2021/08/09 14:54:40;;;;;;;3.75;2.40;;;29.30;99.90;;;;;;5156651;22;20229;-88
2021/08/09 14:57:07;;;;;;;2.83;2.40;;;29.10;99.90;;;;;;5072780;28;20244;-87
2021/08/09 14:59:34;;;;;;;4.32;2.65;;;29.10;99.90;;;;;;5066557;28;20237;-88
2021/08/09 15:02:03;;;;;;;2.80;2.38;;;29.10;99.90;;;;;;5069601;28;20208;-89
2021/08/09 15:04:30;;;;;;;6.10;2.72;;;29.00;99.90;;;;;;5077826;28;20217;-86
2021/08/09 15:06:59;;;;;;;3.25;2.35;;;28.90;99.90;;;;;;5074406;28;20221;-88
2021/08/09 15:09:26;;;;;;;4.00;2.42;;;28.80;99.90;;;;;;5075942;28;20312;-90
2021/08/09 15:11:53;;;;;;;3.67;2.53;;;28.90;99.90;;;;;;5071773;28;20664;-89
2021/08/09 15:14:20;;;;;;;3.13;2.50;;;28.90;99.90;;;;;;5073882;28;20224;-85
2021/08/09 15:16:47;;;;;;;3.33;2.53;;;28.80;99.90;;;;;;5078303;28;20209;-85
2021/08/09 15:19:16;;;;;;;3.03;2.33;;;28.80;99.90;;;;;;5073895;28;20639;-87
2021/08/09 15:21:43;;;;;;;4.63;2.40;;;28.70;99.90;;;;;;5073671;28;20696;-90
2021/08/09 15:24:10;;;;;;;3.60;2.67;;;28.60;99.90;;;;;;5068472;28;20221;-86
2021/08/09 15:26:37;;;;;;;3.28;2.30;;;28.60;99.90;;;;;;5077577;28;20224;-87
2021/08/09 15:29:07;;;;;;;4.28;2.67;;;28.70;99.90;;;;;;5070225;28;20222;-88
2021/08/09 15:31:34;;;;;;;3.10;2.50;;;28.60;99.90;;;;;;5071405;28;20206;-89
2021/08/09 15:34:01;;;;;;;3.05;2.47;;;28.40;99.90;;;;;;5084189;28;20228;-88
2021/08/09 15:36:30;;;;;;;3.25;2.20;;;28.30;99.90;;;;;;5094427;27;20654;-86
2021/08/09 15:38:57;;;;;;;6.30;2.20;;;28.20;99.90;;;;;;5093568;28;20695;-88
2021/08/09 15:41:25;;;;;;;4.35;2.67;;;28.10;99.90;;;;;;5090631;28;20189;-88
2021/08/09 15:43:52;;;;;;;2.83;2.22;;;28.00;99.90;;;;;;5077858;28;20227;-88
2021/08/09 15:46:21;;;;;;;3.20;2.25;;;28.10;99.90;;;;;;5081708;28;20216;-88
2021/08/09 15:48:48;;;;;;;3.05;2.20;;;28.10;99.90;;;;;;5094089;28;20221;-88
2021/08/09 15:51:15;;;;;;;7.00;2.50;;;28.10;99.90;;;;;;5094171;28;20254;-88
2021/08/09 15:53:44;;;;;;;3.65;2.15;;;28.20;99.90;;;;;;5088782;28;20647;-89
2021/08/09 15:56:11;;;;;;;2.92;2.25;;;28.20;99.90;;;;;;5086421;28;20212;-86
2021/08/09 15:58:39;;;;;;;3.25;2.65;;;28.10;99.90;;;;;;5093798;28;20209;-87
2021/08/09 16:01:07;;;;;;;2.95;2.28;;;28.00;99.90;;;;;;5093914;28;20200;-84
2021/08/09 16:03:34;;;;;;;2.65;2.38;;;27.70;99.90;;;;;;5090280;28;20220;-87
2021/08/09 16:06:03;;;;;;;2.90;2.20;;;27.40;99.90;;;;;;5094307;28;20205;-84
2021/08/09 16:08:30;;;;;;;3.75;2.70;;;27.20;99.90;;;;;;5090081;28;20675;-89
2021/08/09 16:10:58;;;;;;;2.17;1.98;;;27.10;99.90;;;;;;5090483;28;20209;-89
2021/08/09 16:13:26;;;;;;;3.92;2.47;;;27.00;99.90;;;;;;5090977;28;20775;-89
2021/08/09 16:15:53;;;;;;;4.70;2.65;;;27.00;99.90;;;;;;5086773;28;20601;-87
2021/08/09 16:18:20;;;;;;;3.78;2.20;;;27.00;99.90;;;;;;5087294;28;20233;-89
2021/08/09 16:20:47;;;;;;;5.25;3.28;;;26.90;99.90;;;;;;5093380;28;20216;-89
2021/08/09 16:23:15;;;;;;;5.22;2.65;;;26.90;99.90;;;;;;5087904;28;20222;-86
2021/08/09 16:25:42;;;;;;;6.18;2.92;;;26.90;99.90;;;;;;5096187;28;20211;-87
2021/08/09 16:28:10;;;;;;;11.25;9.20;;;26.80;99.90;;;;;;5090230;28;21003;-86
2021/08/09 16:30:37;;;;;;;6.75;5.10;;;26.90;99.90;;;;;;5081693;28;20201;-86
2021/08/09 16:33:05;;;;;;;5.80;5.20;;;26.90;99.90;;;;;;5091051;28;20366;-89
2021/08/09 16:35:32;;;;;;;13.27;11.45;;;26.80;99.90;;;;;;5090244;28;20211;-89
2021/08/09 16:37:59;;;;;;;16.42;12.13;;;26.80;99.90;;;;;;5077580;28;20193;-88
2021/08/09 16:40:26;;;;;;;4.03;3.63;;;26.70;99.90;;;;;;5087057;28;21070;-90
2021/08/09 16:42:54;;;;;;;4.47;3.20;;;26.70;99.90;;;;;;5094788;28;20197;-89
2021/08/09 16:45:22;;;;;;;4.50;3.70;;;26.70;99.90;;;;;;5094776;28;20250;-86
2021/08/09 16:47:49;;;;;;;3.70;3.10;;;26.70;99.90;;;;;;5095195;28;20219;-90
2021/08/09 16:50:16;;;;;;;3.35;3.05;;;26.70;99.90;;;;;;5083112;28;20642;-90
2021/08/09 16:52:43;;;;;;;2.97;2.60;;;26.70;99.90;;;;;;5087518;28;20735;-86
2021/08/09 16:55:11;;;;;;;4.28;2.50;;;26.70;99.90;;;;;;5084157;28;20297;-87
2021/08/09 16:57:38;;;;;;;3.15;2.33;;;26.70;99.90;;;;;;5099295;27;20193;-85
2021/08/09 17:00:06;;;;;;;2.90;2.30;;;26.70;99.90;;;;;;5094964;28;20643;-87
2021/08/09 17:02:35;;;;;;;4.00;2.22;;;26.60;99.90;;;;;;5087290;28;20185;-89
2021/08/09 17:05:02;;;;;;;3.38;2.42;;;26.60;99.90;;;;;;5087712;28;20221;-86
2021/08/09 17:07:29;;;;;;;3.33;2.13;;;26.60;99.90;;;;;;5089125;28;20832;-85
2021/08/09 17:09:56;;;;;;;3.20;2.13;;;26.60;99.90;;;;;;5089412;27;20581;-85
2021/08/09 17:12:23;;;;;;;2.70;2.30;;;26.60;99.90;;;;;;5101391;27;20242;-87
2021/08/09 17:14:51;;;;;;;3.72;2.13;;;26.70;99.90;;;;;;5101413;28;20568;-88
2021/08/09 17:17:18;;;;;;;2.55;2.28;;;26.60;99.90;;;;;;5089385;28;20253;-87
2021/08/09 17:19:47;;;;;;;3.22;2.13;;;26.60;99.90;;;;;;5083050;28;20275;-87
2021/08/09 17:22:15;;;;;;;3.15;2.30;;;26.60;99.90;;;;;;5099759;28;20204;-90
2021/08/09 17:24:42;;;;;;;3.38;2.13;;;26.60;99.90;;;;;;5108398;27;20241;-90